Time;durP1;ratioP1;P1;durP2;ratioP2;P2;SDS_P1;SDS_P2;PMS_P1;PMS_P2;Temp;Humidity;BMP_temperature;BMP_pressure;BME280_temperature;BME280_humidity;BME280_pressure;Samples;Min_cycle;Max_cycle;Signal;HPM_P1;HPM_P2
2024/04/04 00:01:42;;;;;;;271.60;261.70;;;8.10;97.30;;;;;;5071395;28;20456;-64
2024/04/04 00:04:09;;;;;;;265.03;255.73;;;8.20;97.30;;;;;;5071187;28;20564;-64
2024/04/04 00:06:35;;;;;;;246.43;237.93;;;8.30;97.30;;;;;;5080258;28;20572;-64
2024/04/04 00:09:01;;;;;;;226.97;219.23;;;8.40;97.30;;;;;;5079429;28;20458;-65
2024/04/04 00:11:27;;;;;;;231.67;222.77;;;8.40;97.40;;;;;;5080058;28;20200;-65
2024/04/04 00:13:55;;;;;;;230.13;222.40;;;8.50;97.30;;;;;;5071228;28;20999;-65
2024/04/04 00:16:21;;;;;;;206.37;199.07;;;8.60;97.00;;;;;;5071781;28;20458;-65
2024/04/04 00:18:48;;;;;;;188.27;182.00;;;8.70;97.00;;;;;;5079395;28;20457;-64
2024/04/04 00:21:14;;;;;;;184.43;178.40;;;8.70;97.20;;;;;;5071521;28;20485;-65
2024/04/04 00:23:41;;;;;;;172.83;166.73;;;8.70;96.20;;;;;;5071856;28;20981;-65
2024/04/04 00:26:07;;;;;;;181.90;175.77;;;8.80;94.80;;;;;;5079074;28;20204;-65
2024/04/04 00:28:34;;;;;;;179.27;172.50;;;8.80;94.60;;;;;;5079590;28;20461;-65
2024/04/04 00:31:01;;;;;;;152.63;147.37;;;8.80;94.50;;;;;;5079111;28;20227;-65
2024/04/04 00:33:28;;;;;;;129.63;125.23;;;8.90;95.10;;;;;;5070895;28;20474;-65
2024/04/04 00:35:54;;;;;;;115.23;111.13;;;8.90;93.30;;;;;;5074491;28;20831;-64
2024/04/04 00:38:20;;;;;;;141.87;136.80;;;9.00;91.20;;;;;;5074788;28;20468;-65
2024/04/04 00:40:46;;;;;;;149.80;144.83;;;9.00;94.70;;;;;;5082638;28;20233;-65
2024/04/04 00:43:13;;;;;;;160.07;154.37;;;9.00;94.70;;;;;;5082868;28;20847;-65
2024/04/04 00:45:39;;;;;;;161.73;155.47;;;9.00;94.40;;;;;;5074459;28;20208;-65
2024/04/04 00:48:07;;;;;;;160.07;154.17;;;9.00;94.40;;;;;;5082754;28;20941;-65
2024/04/04 00:50:33;;;;;;;154.70;149.40;;;9.00;94.40;;;;;;5082574;28;20465;-64
2024/04/04 00:53:01;;;;;;;140.37;135.30;;;9.10;93.10;;;;;;5082933;28;20474;-65
2024/04/04 00:55:27;;;;;;;121.23;117.03;;;9.10;91.10;;;;;;5082923;28;20448;-64
2024/04/04 00:57:54;;;;;;;96.77;93.23;;;9.20;91.10;;;;;;5074363;28;20541;-64
2024/04/04 01:00:23;;;;;;;65.40;62.43;;;9.20;91.10;;;;;;5082083;28;21043;-65
2024/04/04 01:02:51;;;;;;;51.90;49.90;;;9.30;91.10;;;;;;5074216;28;20552;-65
2024/04/04 01:05:18;;;;;;;48.80;46.90;;;9.30;91.10;;;;;;5074651;28;20545;-65
2024/04/04 01:07:46;;;;;;;45.37;42.83;;;9.40;91.20;;;;;;5074338;28;20488;-65
2024/04/04 01:10:12;;;;;;;42.70;40.60;;;9.40;91.20;;;;;;5078396;28;20457;-65
2024/04/04 01:12:39;;;;;;;50.57;48.50;;;9.40;91.20;;;;;;5077364;28;20511;-64
2024/04/04 01:15:06;;;;;;;62.60;60.10;;;9.40;91.20;;;;;;5073940;28;20550;-65
2024/04/04 01:17:33;;;;;;;85.53;82.37;;;9.30;91.10;;;;;;5074148;28;20454;-64
2024/04/04 01:19:59;;;;;;;147.03;141.73;;;9.20;91.10;;;;;;5076722;28;20873;-65
2024/04/04 01:22:27;;;;;;;164.47;158.97;;;9.20;96.00;;;;;;5085912;28;20460;-65
2024/04/04 01:24:54;;;;;;;157.37;151.67;;;9.10;95.30;;;;;;5075356;28;20204;-65
2024/04/04 01:27:21;;;;;;;165.13;159.03;;;9.10;94.80;;;;;;5074160;28;20470;-63
2024/04/04 01:29:47;;;;;;;161.70;155.90;;;9.10;94.70;;;;;;5074470;28;20466;-65
2024/04/04 01:32:15;;;;;;;148.70;143.50;;;9.10;94.10;;;;;;5080874;28;20458;-64
2024/04/04 01:34:40;;;;;;;140.47;135.77;;;9.10;92.50;;;;;;5074159;28;20855;-64
2024/04/04 01:37:07;;;;;;;131.37;126.97;;;9.10;91.80;;;;;;5085638;28;20453;-65
2024/04/04 01:39:33;;;;;;;143.97;139.07;;;9.20;91.80;;;;;;5077213;28;20457;-65
2024/04/04 01:42:01;;;;;;;172.87;166.97;;;9.10;94.40;;;;;;5073785;28;20541;-64
2024/04/04 01:44:27;;;;;;;200.43;193.97;;;9.10;94.60;;;;;;5073516;28;20216;-64
2024/04/04 01:46:54;;;;;;;230.20;222.73;;;9.10;97.30;;;;;;5080633;28;20998;-65
2024/04/04 01:49:20;;;;;;;270.53;261.43;;;9.10;97.70;;;;;;5073077;28;20211;-65
2024/04/04 01:51:46;;;;;;;304.93;294.27;;;9.00;97.70;;;;;;5073144;28;20490;-65
2024/04/04 01:54:14;;;;;;;331.70;319.60;;;9.00;97.70;;;;;;5073135;28;20477;-65
2024/04/04 01:56:41;;;;;;;357.00;343.63;;;8.90;97.70;;;;;;5073149;28;20544;-65
2024/04/04 01:59:10;;;;;;;397.50;381.93;;;8.90;99.90;;;;;;5080692;28;20450;-65
2024/04/04 02:01:36;;;;;;;436.73;418.73;;;8.80;99.90;;;;;;5073238;28;20478;-65
2024/04/04 02:04:02;;;;;;;442.13;423.10;;;8.80;99.90;;;;;;5076326;28;20480;-64
2024/04/04 02:06:29;;;;;;;456.23;436.77;;;8.90;99.90;;;;;;5077620;28;20454;-64
2024/04/04 02:08:55;;;;;;;437.00;418.50;;;9.00;99.90;;;;;;5072541;28;20207;-64
2024/04/04 02:11:22;;;;;;;433.60;415.23;;;9.10;99.90;;;;;;5081117;28;20838;-65
2024/04/04 02:13:47;;;;;;;431.60;412.90;;;9.20;99.90;;;;;;5072656;28;20220;-65
2024/04/04 02:16:16;;;;;;;393.57;377.07;;;9.20;99.90;;;;;;5081509;28;20457;-65
2024/04/04 02:18:43;;;;;;;340.90;327.80;;;9.50;99.80;;;;;;5073007;28;20206;-65
2024/04/04 02:21:10;;;;;;;278.47;267.87;;;9.60;97.90;;;;;;5080483;28;20482;-64
2024/04/04 02:23:35;;;;;;;236.50;227.87;;;9.80;98.00;;;;;;5080975;28;20466;-65
2024/04/04 02:26:03;;;;;;;222.37;214.27;;;9.90;98.00;;;;;;5072371;28;20461;-65
2024/04/04 02:28:29;;;;;;;218.57;210.83;;;10.00;97.60;;;;;;5080099;28;20299;-65
2024/04/04 02:30:55;;;;;;;197.97;191.13;;;10.10;97.60;;;;;;5081641;28;20540;-65
2024/04/04 02:33:23;;;;;;;174.40;168.17;;;10.10;97.60;;;;;;5072679;28;20243;-64
2024/04/04 02:35:53;;;;;;;160.17;154.00;;;10.10;97.60;;;;;;5072533;28;20545;-64
2024/04/04 02:38:21;;;;;;;142.00;137.20;;;10.10;97.70;;;;;;5080675;28;20454;-64
2024/04/04 02:40:47;;;;;;;158.60;152.77;;;10.20;97.70;;;;;;5071680;28;20478;-65
2024/04/04 02:43:14;;;;;;;161.03;155.43;;;10.10;97.70;;;;;;5072298;28;20470;-64
2024/04/04 02:45:41;;;;;;;253.40;245.27;;;10.10;97.70;;;;;;5072300;28;20490;-63
2024/04/04 02:48:07;;;;;;;410.47;398.00;;;10.10;99.90;;;;;;5072353;28;20451;-63
2024/04/04 02:50:35;;;;;;;664.87;639.50;;;10.00;99.90;;;;;;5080182;28;20454;-64
2024/04/04 02:53:01;;;;;;;763.97;729.43;;;10.00;99.90;;;;;;5072118;28;20478;-64
2024/04/04 02:55:28;;;;;;;775.87;739.90;;;9.90;99.90;;;;;;5080578;28;20971;-64
2024/04/04 02:57:54;;;;;;;777.33;741.70;;;9.90;99.90;;;;;;5071838;28;20200;-64
2024/04/04 03:00:21;;;;;;;837.70;791.17;;;9.90;99.90;;;;;;5080030;28;20478;-64
2024/04/04 03:02:47;;;;;;;865.97;812.00;;;9.90;99.90;;;;;;5080301;28;20607;-64
2024/04/04 03:05:15;;;;;;;863.83;810.13;;;9.80;99.90;;;;;;5077021;28;20457;-64
2024/04/04 03:07:42;;;;;;;855.33;806.17;;;9.80;99.90;;;;;;5075517;28;20450;-64
2024/04/04 03:10:09;;;;;;;886.93;834.67;;;9.90;99.90;;;;;;5079552;28;20482;-64
2024/04/04 03:12:34;;;;;;;872.50;823.60;;;9.90;99.90;;;;;;5072058;28;20460;-64
2024/04/04 03:15:01;;;;;;;870.47;822.30;;;10.00;99.90;;;;;;5075127;28;20453;-64
2024/04/04 03:17:28;;;;;;;884.77;831.57;;;10.00;99.90;;;;;;5076883;28;20588;-64
2024/04/04 03:19:55;;;;;;;878.57;826.53;;;10.10;99.90;;;;;;5071532;28;21017;-64
2024/04/04 03:22:21;;;;;;;862.23;814.50;;;10.10;99.90;;;;;;5080537;28;20454;-64
2024/04/04 03:24:49;;;;;;;875.63;825.60;;;10.10;99.90;;;;;;5073258;28;21045;-64
2024/04/04 03:27:15;;;;;;;873.17;823.10;;;10.20;99.90;;;;;;5078876;28;20450;-64
2024/04/04 03:29:42;;;;;;;856.03;809.97;;;10.20;99.90;;;;;;5079837;28;20960;-64
2024/04/04 03:32:08;;;;;;;854.23;808.83;;;10.20;99.90;;;;;;5075978;28;20196;-64
2024/04/04 03:34:35;;;;;;;854.10;808.53;;;10.20;99.90;;;;;;5083463;28;20477;-64
2024/04/04 03:37:00;;;;;;;855.50;810.10;;;10.20;99.90;;;;;;5072647;28;20309;-63
2024/04/04 03:39:27;;;;;;;865.70;817.00;;;10.20;99.90;;;;;;5080492;28;20472;-64
2024/04/04 03:41:55;;;;;;;877.50;824.50;;;10.30;99.90;;;;;;5072196;28;20602;-64
2024/04/04 03:44:22;;;;;;;886.87;830.30;;;10.30;99.90;;;;;;5080291;28;20473;-63
2024/04/04 03:46:48;;;;;;;887.47;831.77;;;10.30;99.90;;;;;;5071406;28;20455;-64
2024/04/04 03:49:14;;;;;;;890.07;831.67;;;10.40;99.90;;;;;;5079284;28;20464;-64
2024/04/04 03:51:40;;;;;;;906.17;843.97;;;10.40;99.90;;;;;;5071586;28;20196;-64
2024/04/04 03:54:07;;;;;;;941.47;872.37;;;10.40;99.90;;;;;;5071559;28;20575;-64
2024/04/04 03:56:33;;;;;;;952.40;881.67;;;10.40;99.90;;;;;;5075848;28;20199;-64
2024/04/04 03:59:01;;;;;;;954.10;883.63;;;10.50;99.90;;;;;;5075263;28;20454;-64
2024/04/04 04:01:27;;;;;;;953.80;882.50;;;10.50;99.90;;;;;;5081276;28;20215;-64
2024/04/04 04:03:53;;;;;;;915.87;849.57;;;10.60;99.90;;;;;;5071000;28;20477;-64
2024/04/04 04:06:19;;;;;;;906.63;842.50;;;10.70;99.90;;;;;;5072078;28;20211;-64
2024/04/04 04:08:46;;;;;;;937.00;869.00;;;10.70;99.90;;;;;;5080681;28;20457;-64
2024/04/04 04:11:12;;;;;;;928.83;862.10;;;10.70;99.90;;;;;;5080142;28;20453;-62
2024/04/04 04:13:39;;;;;;;922.90;857.80;;;10.70;99.90;;;;;;5079146;28;20480;-64
2024/04/04 04:16:08;;;;;;;930.27;864.37;;;10.60;99.90;;;;;;5076426;28;20198;-64
2024/04/04 04:18:35;;;;;;;917.70;852.87;;;10.50;99.90;;;;;;5075199;28;20465;-64
2024/04/04 04:21:17;;;;;;;918.07;853.13;;;10.50;99.90;;;;;;5077825;28;20481;-64
2024/04/04 04:23:47;;;;;;;919.17;853.57;;;10.30;99.90;;;;;;5077874;28;20478;-64
2024/04/04 04:26:13;;;;;;;919.07;851.10;;;10.20;99.90;;;;;;5075063;28;20450;-64
2024/04/04 04:28:40;;;;;;;940.37;869.77;;;10.10;99.90;;;;;;5083107;28;20535;-63
2024/04/04 04:31:23;;;;;;;948.37;877.07;;;10.10;99.90;;;;;;5078637;28;20453;-64
2024/04/04 04:33:49;;;;;;;961.17;886.90;;;10.10;99.90;;;;;;5076734;28;20488;-64
2024/04/04 04:36:17;;;;;;;970.67;895.30;;;10.10;99.90;;;;;;5080361;28;20524;-64
2024/04/04 04:38:43;;;;;;;984.30;906.37;;;10.10;99.90;;;;;;5085284;28;20965;-63
2024/04/04 04:41:10;;;;;;;979.80;902.57;;;10.10;99.90;;;;;;5074488;28;20482;-63
2024/04/04 04:43:36;;;;;;;1000.27;920.57;;;10.10;99.90;;;;;;5082788;28;20473;-64
2024/04/04 04:46:03;;;;;;;1018.17;937.87;;;10.10;99.90;;;;;;5082956;28;20454;-64
2024/04/04 04:48:30;;;;;;;1012.63;932.17;;;10.10;99.90;;;;;;5081736;28;20210;-64
2024/04/04 04:50:57;;;;;;;1011.33;931.03;;;10.10;99.90;;;;;;5075099;28;20761;-64
2024/04/04 04:53:23;;;;;;;1012.53;932.57;;;10.20;99.90;;;;;;5082685;28;20474;-64
2024/04/04 04:55:50;;;;;;;971.40;893.67;;;10.20;99.90;;;;;;5082436;28;20484;-64
2024/04/04 04:58:19;;;;;;;995.13;913.37;;;10.30;99.90;;;;;;5074529;28;20450;-63
2024/04/04 05:00:45;;;;;;;946.43;869.87;;;10.40;99.90;;;;;;5081950;28;20570;-64
2024/04/04 05:03:12;;;;;;;914.37;845.20;;;10.70;99.90;;;;;;5078647;28;20473;-64
2024/04/04 05:05:40;;;;;;;850.87;790.37;;;11.00;99.90;;;;;;5077616;28;20458;-61
2024/04/04 05:08:06;;;;;;;795.73;745.23;;;11.20;99.90;;;;;;5078211;28;20460;-64
2024/04/04 05:10:33;;;;;;;752.80;709.40;;;11.50;99.90;;;;;;5077681;28;20461;-64
2024/04/04 05:12:59;;;;;;;737.03;697.83;;;11.60;99.90;;;;;;5073469;28;20486;-64
2024/04/04 05:15:26;;;;;;;730.73;694.50;;;11.60;99.90;;;;;;5077499;28;20454;-64
2024/04/04 05:17:52;;;;;;;720.90;685.93;;;11.70;99.90;;;;;;5073658;28;20208;-64
2024/04/04 05:20:18;;;;;;;716.73;683.00;;;11.70;99.90;;;;;;5075771;28;20839;-65
2024/04/04 05:22:45;;;;;;;753.03;717.00;;;11.80;99.90;;;;;;5091256;28;20763;-64
2024/04/04 05:25:14;;;;;;;770.43;731.60;;;11.70;99.90;;;;;;5085487;28;20988;-64
2024/04/04 05:27:40;;;;;;;765.80;729.63;;;11.70;99.90;;;;;;5076900;28;21009;-63
2024/04/04 05:30:10;;;;;;;764.97;729.40;;;11.80;99.90;;;;;;5097287;28;20461;-64
2024/04/04 05:32:36;;;;;;;776.53;740.23;;;11.80;99.90;;;;;;5089235;28;20453;-64
2024/04/04 05:35:03;;;;;;;816.57;775.47;;;11.80;99.90;;;;;;5082098;28;20546;-65
2024/04/04 05:37:29;;;;;;;804.90;765.17;;;11.70;99.90;;;;;;5073170;28;20457;-64
2024/04/04 05:39:57;;;;;;;821.50;776.90;;;11.80;99.90;;;;;;5081571;28;20458;-63
2024/04/04 05:42:24;;;;;;;808.87;767.10;;;11.80;99.90;;;;;;5073174;28;20220;-64
2024/04/04 05:44:51;;;;;;;801.37;759.77;;;11.80;99.90;;;;;;5074817;28;21019;-64
2024/04/04 05:47:16;;;;;;;818.13;773.07;;;11.80;99.90;;;;;;5084935;28;20446;-64
2024/04/04 05:49:43;;;;;;;826.00;779.80;;;11.70;99.90;;;;;;5100437;28;20455;-64
2024/04/04 05:52:09;;;;;;;832.70;785.53;;;11.70;99.90;;;;;;5076747;28;20227;-65
2024/04/04 05:54:37;;;;;;;832.67;784.77;;;11.70;99.90;;;;;;5093186;28;20476;-64
2024/04/04 05:57:05;;;;;;;845.40;795.90;;;11.70;99.90;;;;;;5084288;28;20191;-64
2024/04/04 05:59:32;;;;;;;855.90;804.40;;;11.70;99.90;;;;;;5099444;28;20459;-64
2024/04/04 06:01:58;;;;;;;841.17;791.50;;;11.60;99.90;;;;;;5082884;28;20478;-64
2024/04/04 06:04:26;;;;;;;841.47;790.97;;;11.60;99.90;;;;;;5073250;28;20855;-64
2024/04/04 06:06:52;;;;;;;823.90;775.63;;;11.60;99.90;;;;;;5072983;28;20208;-64
2024/04/04 06:09:19;;;;;;;881.47;826.30;;;11.70;99.90;;;;;;5078502;28;20460;-64
2024/04/04 06:11:44;;;;;;;907.77;850.67;;;11.60;99.90;;;;;;5083892;28;20445;-64
2024/04/04 06:14:13;;;;;;;915.63;858.03;;;11.70;99.90;;;;;;5095764;28;20557;-64
2024/04/04 06:16:39;;;;;;;909.67;852.57;;;11.70;99.90;;;;;;5072711;28;20196;-64
2024/04/04 06:19:05;;;;;;;912.00;854.27;;;11.70;99.90;;;;;;5080594;28;20488;-64
2024/04/04 06:21:31;;;;;;;947.10;884.63;;;11.70;99.90;;;;;;5072941;28;20482;-64
2024/04/04 06:23:58;;;;;;;975.97;909.60;;;11.70;99.90;;;;;;5074820;28;20852;-64
2024/04/04 06:26:26;;;;;;;952.90;886.90;;;11.70;99.90;;;;;;5091689;28;20579;-64
2024/04/04 06:28:53;;;;;;;970.97;903.97;;;11.70;99.90;;;;;;5082514;28;20489;-64
2024/04/04 06:31:20;;;;;;;990.47;921.83;;;11.70;99.90;;;;;;5079396;28;20642;-64
2024/04/04 06:33:47;;;;;;;972.97;906.80;;;11.70;99.90;;;;;;5079327;28;20499;-64
2024/04/04 06:36:13;;;;;;;1143.73;999.90;;;11.70;99.90;;;;;;5087012;28;20871;-65
2024/04/04 06:38:40;;;;;;;1146.10;999.90;;;11.70;99.90;;;;;;5081015;28;20458;-64
2024/04/04 06:41:06;;;;;;;1120.90;999.90;;;11.60;99.90;;;;;;5080155;28;20573;-65
2024/04/04 06:43:33;;;;;;;1159.77;999.90;;;11.60;99.90;;;;;;5080469;28;21009;-65
2024/04/04 06:45:58;;;;;;;1127.30;999.90;;;11.60;99.90;;;;;;5080961;28;20207;-65
2024/04/04 06:48:27;;;;;;;1094.70;999.90;;;11.60;99.90;;;;;;5072091;28;20836;-65
2024/04/04 06:50:53;;;;;;;1101.67;999.90;;;11.60;99.90;;;;;;5071818;28;20836;-65
2024/04/04 06:53:19;;;;;;;1111.27;999.90;;;11.60;99.90;;;;;;5080437;28;20484;-65
2024/04/04 06:55:45;;;;;;;1086.63;999.57;;;11.60;99.90;;;;;;5080583;28;20210;-65
2024/04/04 06:58:14;;;;;;;1149.17;999.90;;;11.60;99.90;;;;;;5076405;28;20453;-65
2024/04/04 07:00:41;;;;;;;1121.73;999.90;;;11.60;99.90;;;;;;5083018;28;20219;-65
2024/04/04 07:03:08;;;;;;;1154.10;999.90;;;11.60;99.90;;;;;;5071913;28;20486;-65
2024/04/04 07:05:36;;;;;;;1153.63;999.90;;;11.60;99.90;;;;;;5071876;28;20462;-65
2024/04/04 07:08:05;;;;;;;1116.53;999.90;;;11.60;99.90;;;;;;5071187;28;20458;-65
2024/04/04 07:10:31;;;;;;;1126.97;999.90;;;11.60;99.90;;;;;;5068609;28;20954;-65
2024/04/04 07:12:57;;;;;;;1178.72;999.90;;;11.60;99.90;;;;;;5073386;28;20450;-65
2024/04/04 07:15:23;;;;;;;1126.83;999.90;;;11.60;99.90;;;;;;5088008;28;20191;-64
2024/04/04 07:17:52;;;;;;;1141.13;999.90;;;11.60;99.90;;;;;;5082016;28;20463;-64
2024/04/04 07:20:18;;;;;;;1115.87;999.90;;;11.60;99.90;;;;;;5085576;28;20672;-65
2024/04/04 07:22:46;;;;;;;1109.87;999.90;;;11.70;99.90;;;;;;5071632;28;20484;-65
2024/04/04 07:25:12;;;;;;;1096.10;999.90;;;11.70;99.90;;;;;;5076497;28;20583;-64
2024/04/04 07:27:39;;;;;;;1131.07;999.90;;;11.80;99.90;;;;;;5075262;28;20910;-65
2024/04/04 07:30:06;;;;;;;1140.93;999.90;;;11.80;99.90;;;;;;5071092;28;20454;-66
2024/04/04 07:32:33;;;;;;;1126.47;999.90;;;11.90;99.90;;;;;;5080237;28;20473;-65
2024/04/04 07:35:01;;;;;;;1104.40;999.90;;;11.90;99.90;;;;;;5071507;28;20495;-65
2024/04/04 07:37:28;;;;;;;1075.93;979.27;;;11.80;99.90;;;;;;5071758;28;20457;-65
2024/04/04 07:39:57;;;;;;;1080.20;980.90;;;11.90;99.90;;;;;;5071119;28;20472;-65
2024/04/04 07:42:23;;;;;;;1063.20;966.83;;;11.90;99.90;;;;;;5077439;28;20988;-64
2024/04/04 07:44:49;;;;;;;1037.60;942.70;;;11.80;99.90;;;;;;5076780;28;20482;-65
2024/04/04 07:47:16;;;;;;;1069.70;972.17;;;11.80;99.90;;;;;;5075791;28;20464;-65
2024/04/04 07:49:42;;;;;;;1076.13;977.93;;;11.80;99.90;;;;;;5075285;28;20200;-65
2024/04/04 07:52:09;;;;;;;1086.63;989.40;;;11.80;99.90;;;;;;5084338;28;20511;-65
2024/04/04 07:54:35;;;;;;;1068.97;972.50;;;11.80;99.90;;;;;;5075979;28;20474;-64
2024/04/04 07:57:04;;;;;;;1049.10;953.30;;;11.80;99.90;;;;;;5086851;28;20453;-63
2024/04/04 07:59:29;;;;;;;1052.40;958.27;;;11.80;99.90;;;;;;5079728;28;20206;-64
2024/04/04 08:01:56;;;;;;;1058.77;968.17;;;11.80;99.90;;;;;;5075351;28;20486;-65
2024/04/04 08:04:22;;;;;;;1014.30;923.70;;;11.80;99.90;;;;;;5075385;28;20226;-65
2024/04/04 08:06:49;;;;;;;1009.83;922.37;;;11.80;99.90;;;;;;5075237;28;20453;-64
2024/04/04 08:09:15;;;;;;;1025.28;936.00;;;11.70;99.90;;;;;;5078860;28;20475;-65
2024/04/04 08:11:42;;;;;;;1001.03;917.73;;;11.80;99.90;;;;;;5096310;28;20668;-65
2024/04/04 08:14:09;;;;;;;961.17;879.37;;;11.70;99.90;;;;;;5082417;28;20228;-64
2024/04/04 08:16:36;;;;;;;924.03;842.87;;;11.80;99.90;;;;;;5090170;28;20918;-65
2024/04/04 08:19:02;;;;;;;940.37;859.67;;;11.70;99.90;;;;;;5090804;28;20966;-65
2024/04/04 08:21:28;;;;;;;963.23;879.67;;;11.70;99.90;;;;;;5084964;28;20476;-66
2024/04/04 08:23:54;;;;;;;954.30;871.40;;;11.70;99.90;;;;;;5095679;28;20469;-64
2024/04/04 08:26:24;;;;;;;936.73;853.20;;;11.70;99.90;;;;;;5074467;28;20553;-64
2024/04/04 08:28:50;;;;;;;969.17;886.40;;;11.80;99.90;;;;;;5080546;28;20195;-65
2024/04/04 08:31:18;;;;;;;960.13;877.97;;;11.70;99.90;;;;;;5099095;28;20883;-65
2024/04/04 08:33:44;;;;;;;952.13;870.10;;;11.80;99.90;;;;;;5089968;28;20469;-65
2024/04/04 08:36:11;;;;;;;922.67;842.07;;;12.00;99.90;;;;;;5098314;28;20452;-65
2024/04/04 08:38:37;;;;;;;938.70;857.70;;;12.00;99.90;;;;;;5086561;28;20201;-64
2024/04/04 08:41:08;;;;;;;894.03;818.50;;;12.20;99.90;;;;;;5077643;28;20456;-64
2024/04/04 08:43:35;;;;;;;857.83;786.53;;;12.30;99.90;;;;;;5090478;28;20207;-64
2024/04/04 08:46:06;;;;;;;824.07;756.67;;;12.20;99.90;;;;;;5082300;28;20537;-65
2024/04/04 08:48:34;;;;;;;808.80;747.60;;;12.40;99.90;;;;;;5073968;28;20446;-65
2024/04/04 08:51:00;;;;;;;775.60;720.57;;;12.60;99.90;;;;;;5087367;28;20490;-64
2024/04/04 08:53:27;;;;;;;755.93;707.50;;;12.70;99.90;;;;;;5074668;28;20483;-65
2024/04/04 08:55:55;;;;;;;754.10;709.90;;;12.50;99.90;;;;;;5073597;28;20456;-65
2024/04/04 08:58:22;;;;;;;733.37;697.90;;;12.40;99.90;;;;;;5079175;28;20446;-65
2024/04/04 09:00:49;;;;;;;727.77;695.17;;;12.20;99.90;;;;;;5074611;28;20844;-65
2024/04/04 09:03:16;;;;;;;659.23;634.73;;;12.30;99.90;;;;;;5079045;28;20924;-65
2024/04/04 09:05:44;;;;;;;655.03;630.90;;;12.30;99.90;;;;;;5080930;28;20454;-65
2024/04/04 09:08:10;;;;;;;644.50;621.90;;;12.20;99.90;;;;;;5081916;28;20446;-64
2024/04/04 09:10:37;;;;;;;661.00;636.90;;;12.10;99.90;;;;;;5094533;28;20456;-65
2024/04/04 09:13:04;;;;;;;755.27;720.57;;;12.20;99.90;;;;;;5085293;28;20469;-66
2024/04/04 09:15:31;;;;;;;754.37;716.90;;;12.70;99.90;;;;;;5086808;28;20465;-66
2024/04/04 09:18:05;;;;;;;734.73;702.17;;;13.20;99.90;;;;;;5080397;28;20450;-66
2024/04/04 09:20:32;;;;;;;497.17;482.10;;;13.40;99.90;;;;;;5078892;28;20465;-65
2024/04/04 09:23:01;;;;;;;429.80;417.37;;;13.20;99.90;;;;;;5079431;28;21056;-65
2024/04/04 09:25:28;;;;;;;438.60;425.93;;;13.30;99.90;;;;;;5079519;28;21002;-66
2024/04/04 09:27:54;;;;;;;609.20;589.87;;;13.30;99.90;;;;;;5090402;28;20453;-66
2024/04/04 09:30:24;;;;;;;426.37;413.97;;;13.50;99.90;;;;;;5083887;28;20491;-65
2024/04/04 09:32:50;;;;;;;303.83;295.03;;;13.50;99.90;;;;;;5091981;28;20239;-65
2024/04/04 09:35:18;;;;;;;190.03;184.17;;;13.50;99.90;;;;;;5092775;28;20462;-65
2024/04/04 09:37:45;;;;;;;122.70;118.57;;;13.50;99.90;;;;;;5077188;28;20446;-65
2024/04/04 09:40:14;;;;;;;29.40;28.20;;;13.70;99.90;;;;;;5085621;28;20478;-66
2024/04/04 09:42:42;;;;;;;22.90;21.70;;;13.70;99.90;;;;;;5081347;28;20594;-65
2024/04/04 09:45:09;;;;;;;31.90;30.57;;;13.60;99.90;;;;;;5072979;28;20454;-63
2024/04/04 09:47:40;;;;;;;23.97;22.87;;;14.10;99.90;;;;;;5072818;28;20942;-65
2024/04/04 09:50:09;;;;;;;13.60;12.87;;;14.30;99.90;;;;;;5072262;28;20458;-63
2024/04/04 09:52:37;;;;;;;7.03;6.43;;;14.30;99.90;;;;;;5089345;28;20441;-64
2024/04/04 09:55:05;;;;;;;11.63;10.93;;;14.10;99.90;;;;;;5084106;28;20489;-63
2024/04/04 09:57:32;;;;;;;4.90;4.50;;;14.20;99.90;;;;;;5078956;28;20438;-64
2024/04/04 10:00:14;;;;;;;5.60;3.73;;;14.20;99.90;;;;;;5077652;28;20504;-65
2024/04/04 10:02:46;;;;;;;5.90;5.03;;;14.10;99.90;;;;;;5083628;28;20469;-64
2024/04/04 10:05:18;;;;;;;5.63;4.13;;;14.20;99.90;;;;;;5087089;28;20454;-63
2024/04/04 10:07:44;;;;;;;5.30;2.40;;;14.20;99.90;;;;;;5077676;27;20528;-63
2024/04/04 10:10:16;;;;;;;5.97;3.27;;;14.10;99.90;;;;;;5077140;28;20479;-64
2024/04/04 10:12:49;;;;;;;5.20;2.40;;;14.10;99.90;;;;;;5075903;28;20492;-63
2024/04/04 10:15:18;;;;;;;6.20;2.20;;;14.20;99.90;;;;;;5072832;28;20498;-63
2024/04/04 10:17:45;;;;;;;4.20;2.20;;;14.10;99.90;;;;;;5083062;28;20445;-63
2024/04/04 10:20:12;;;;;;;5.20;1.70;;;14.30;99.90;;;;;;5083000;28;20454;-64
2024/04/04 10:22:38;;;;;;;4.17;1.50;;;14.20;99.90;;;;;;5081007;28;20478;-63
2024/04/04 10:25:05;;;;;;;5.13;1.67;;;14.10;99.90;;;;;;5072713;28;20516;-63
2024/04/04 10:27:31;;;;;;;5.90;1.90;;;14.10;99.90;;;;;;5079547;28;20460;-63
2024/04/04 10:29:59;;;;;;;5.60;2.20;;;14.10;99.90;;;;;;5072751;28;20458;-65
2024/04/04 10:32:28;;;;;;;8.60;2.17;;;14.10;99.90;;;;;;5082118;28;20564;-63
2024/04/04 10:35:02;;;;;;;5.47;2.03;;;14.40;99.90;;;;;;5082471;28;20525;-63
2024/04/04 10:37:28;;;;;;;4.80;1.87;;;15.10;99.90;;;;;;5077368;28;20449;-63
2024/04/04 10:39:55;;;;;;;5.30;1.43;;;15.40;99.90;;;;;;5088826;28;20449;-63
2024/04/04 10:42:21;;;;;;;4.30;1.80;;;15.80;93.40;;;;;;5080507;28;20478;-63
2024/04/04 10:44:51;;;;;;;6.33;1.30;;;16.50;93.40;;;;;;5080740;28;20561;-63
2024/04/04 10:47:18;;;;;;;6.37;1.30;;;16.90;83.20;;;;;;5078024;28;20456;-62
2024/04/04 10:49:45;;;;;;;4.80;1.00;;;17.00;71.00;;;;;;5074468;28;20839;-64
2024/04/04 10:52:13;;;;;;;7.53;1.23;;;16.80;67.20;;;;;;5082192;28;20442;-63
2024/04/04 10:54:40;;;;;;;4.80;1.57;;;16.70;72.20;;;;;;5083853;28;20470;-63
2024/04/04 10:57:05;;;;;;;4.27;1.17;;;16.50;72.20;;;;;;5081453;28;20446;-63
2024/04/04 10:59:32;;;;;;;4.60;1.43;;;16.30;66.70;;;;;;5083420;28;20453;-63
2024/04/04 11:02:03;;;;;;;5.63;1.70;;;16.30;74.70;;;;;;5072797;28;20688;-64
2024/04/04 11:04:32;;;;;;;5.90;1.30;;;16.20;74.90;;;;;;5084913;28;20462;-63
2024/04/04 11:06:58;;;;;;;8.80;1.33;;;16.00;74.60;;;;;;5081043;28;20449;-63
2024/04/04 11:09:27;;;;;;;4.30;1.20;;;16.10;74.60;;;;;;5071439;28;20942;-63
2024/04/04 11:11:54;;;;;;;3.70;1.00;;;15.90;68.60;;;;;;5073738;28;20446;-63
2024/04/04 11:14:21;;;;;;;4.83;1.33;;;16.00;66.50;;;;;;5078038;28;20478;-63
2024/04/04 11:16:49;;;;;;;5.13;1.43;;;15.80;66.40;;;;;;5071868;28;20450;-63
2024/04/04 11:19:17;;;;;;;5.40;1.27;;;15.70;73.10;;;;;;5071274;28;20462;-62
2024/04/04 11:21:44;;;;;;;5.43;1.30;;;15.50;74.10;;;;;;5071893;28;20478;-63
2024/04/04 11:24:11;;;;;;;5.23;1.43;;;15.10;67.80;;;;;;5077143;28;20474;-63
2024/04/04 11:26:37;;;;;;;5.70;1.10;;;14.30;99.40;;;;;;5080030;28;21003;-63
2024/04/04 11:29:03;;;;;;;5.20;1.20;;;13.00;99.90;;;;;;5071170;28;20466;-64
2024/04/04 11:31:29;;;;;;;9.90;1.50;;;12.60;99.90;;;;;;5071760;28;20204;-63
2024/04/04 11:33:56;;;;;;;5.87;1.80;;;12.50;99.90;;;;;;5071598;28;20478;-63
2024/04/04 11:36:22;;;;;;;3.50;0.90;;;12.40;99.90;;;;;;5077233;28;21009;-63
2024/04/04 11:38:51;;;;;;;4.77;1.40;;;12.40;99.90;;;;;;5070471;28;20454;-63
2024/04/04 11:41:17;;;;;;;4.13;1.17;;;12.30;99.90;;;;;;5056636;28;20465;-63
2024/04/04 11:43:44;;;;;;;3.70;1.20;;;12.20;95.50;;;;;;5065672;28;20494;-61
2024/04/04 11:46:12;;;;;;;3.60;1.30;;;12.10;98.50;;;;;;5080293;28;20450;-62
2024/04/04 11:48:39;;;;;;;5.57;1.70;;;12.20;98.50;;;;;;5077339;28;20477;-63
2024/04/04 11:51:05;;;;;;;6.00;2.10;;;12.40;98.60;;;;;;5087247;28;20449;-63
2024/04/04 11:53:31;;;;;;;6.80;1.73;;;12.50;98.60;;;;;;5078169;28;20467;-63
2024/04/04 11:55:59;;;;;;;7.10;1.50;;;12.50;96.00;;;;;;5076554;28;20458;-63
2024/04/04 11:58:27;;;;;;;3.50;1.20;;;12.40;96.20;;;;;;5082383;28;20458;-63
2024/04/04 12:00:53;;;;;;;6.40;1.73;;;12.20;98.50;;;;;;5080674;28;20546;-63
2024/04/04 12:03:19;;;;;;;4.10;2.30;;;12.20;98.50;;;;;;5080986;28;20483;-62
2024/04/04 12:05:45;;;;;;;6.20;4.40;;;12.00;99.90;;;;;;5080227;28;20283;-63
2024/04/04 12:08:15;;;;;;;37.27;35.63;;;11.70;99.90;;;;;;5081224;28;20541;-63
2024/04/04 12:10:43;;;;;;;99.53;96.17;;;11.30;99.90;;;;;;5079267;28;20450;-63
2024/04/04 12:13:12;;;;;;;213.33;206.80;;;11.30;99.90;;;;;;5075071;28;20462;-63
2024/04/04 12:15:38;;;;;;;112.10;108.33;;;11.40;99.90;;;;;;5071011;28;20824;-63